Bedias, Texas
Current Conditions -  °F | °C
As of 7:53 PM on Sunday 25 Jan 2015 (Local Time) from KUTS Reporting Station
Clear Clear  
Wind Chill: 60°   Ceiling: Unl
Heat Index: 60°   Visibility: 10mi
Dew Point: 23°   Wind: 9mph
Humidity: 24%   Direction: 320°NW
Pressure: 30.11"   Gusts: 18mph
Location:  30.78°N, 95.95°W
Report Text: KUTS 260153Z AUTO 32008G16KT 10SM CLR 16/M05 A3011 RMK AO2 SLP194 T01561050
Loading
Personal Weather Stations






























Interactive Weather Map New forecast layout! Learn more

10-Day Weather Forecast

Advertisements
Track Severe Weather on mobile